Homestead ARB Airport
KHST : now visible

Airfield :











YOU CAN JOIN US ON...

 
LOGIN :

Register | Disclaimer

   EN    FR    IT 

 









Legend :    VFR   Marginal VFR   IFR   Intensive IFR   Very Intensive IFR
Visi :
Ceiling :
>= 8 km
>= 3000ft
5 to 8 km
1000 to 3000 ft
1500m to 5 km
500 to 1000 ft
800 to 1500m
200 to 500 ft
< 800m
< 200 ft
Symbols :   Thunderstorms  Fog  Heavy snow  Heavy precipitations  Wind > 20 kt






- Airport Elevation : 5 ft


KHST - Homestead ARB

CURRENT METAR :
  • 220056Z AUTO 05005KT 10SM BKN080 26/22 A3006 RMK AO2 SLP183 T02610223

EXPIRED METARs :
  • 212356Z AUTO 05006KT 10SM CLR 26/22 A3004 RMK AO2 SLP176 T02570218 10294 20255 55000
  • 212256Z AUTO 04007KT 10SM CLR 26/22 A3003 RMK AO2 SLP172 T02600218

TAF TAF KHST
Valid from the 21 at 19:00 until the 23 at 01:00 UTC


211900Z 2119/2301 07010G15KT 9999 SCT040 QNH3002INS
BECMG 2123/2124 06009KT 9999 FEW025 SCT040 QNH2997INS
BECMG 2202/2203 07007KT 9999 VCSH SCT030 SCT040 QNH2996INS
BECMG 2214/2215 07012KT 6000 SHRA VCTS FEW018 SCT025CB OVC040 QNH2991INS
TEMPO 2217/2223 VRB12G18KT 4800 -TSRA OVC020CB TX29/2119Z TN23/2210Z
KZMA FIR / North America



MET'MAP, your aeronautical weather chart ! - Copyright ORBIFLY December 2007 - Disclaimer

ORBIFLY MET'MAP TEAM :

Programming & Development : Alexandra Zaïnal
Concept & original design : Baudouin d'Aumeries
Assistance for programming : Marc-Olivier Méhu
Technical & hardware support : Manuel Goepfert

Contact : metmap@orbifly.com




SOURCES & CREDITS :

   NOAA       Earth
Advisory